createdAt,value
2018-10-02T00:02:05.410Z,7.15
2018-10-02T00:05:09.689Z,7.11
2018-10-02T00:08:13.703Z,7.11
2018-10-02T00:11:22.919Z,7.08
2018-10-02T00:14:28.662Z,7.10
2018-10-02T00:17:32.606Z,7.00
2018-10-02T00:20:36.572Z,7.04
2018-10-02T00:23:40.507Z,7.01
2018-10-02T00:26:44.447Z,7.06
2018-10-02T00:29:48.385Z,7.08
2018-10-02T00:32:52.329Z,7.03
2018-10-02T00:35:56.274Z,7.09
2018-10-02T00:39:00.541Z,7.05
2018-10-02T00:42:05.042Z,7.12
2018-10-02T00:45:08.974Z,7.12
2018-10-02T00:48:12.911Z,7.13
2018-10-02T00:51:16.845Z,7.16
2018-10-02T00:54:20.830Z,7.16
2018-10-02T00:57:24.770Z,7.17
2018-10-02T01:00:28.713Z,7.24
2018-10-02T01:03:32.762Z,7.22
2018-10-02T01:06:36.683Z,7.19
2018-10-02T01:09:40.641Z,7.16
2018-10-02T01:12:44.593Z,7.27
2018-10-02T01:15:48.540Z,7.31
2018-10-02T01:18:52.486Z,7.30
2018-10-02T01:21:56.433Z,7.26
2018-10-02T01:25:00.366Z,7.28
2018-10-02T01:28:04.638Z,7.24
2018-10-02T01:31:09.387Z,7.24
2018-10-02T01:34:13.335Z,7.25
2018-10-02T01:37:17.265Z,7.22
2018-10-02T01:40:21.269Z,7.23
2018-10-02T01:43:25.193Z,7.29
2018-10-02T01:46:29.110Z,7.25
2018-10-02T01:49:33.046Z,7.32
2018-10-02T01:52:37.341Z,7.33
2018-10-02T01:55:41.491Z,7.35
2018-10-02T01:58:45.431Z,7.31
2018-10-02T02:01:49.734Z,7.32
2018-10-02T02:04:53.711Z,7.31
2018-10-02T02:07:57.666Z,7.39
2018-10-02T02:11:01.622Z,7.40
2018-10-02T02:14:05.897Z,7.42
2018-10-02T02:17:09.838Z,7.43
2018-10-02T02:20:14.087Z,7.40
2018-10-02T02:23:18.027Z,7.35
2018-10-02T02:26:21.959Z,7.32
2018-10-02T02:29:25.903Z,7.29
2018-10-02T02:32:30.361Z,7.26
2018-10-02T02:35:34.302Z,7.26
2018-10-02T02:38:38.238Z,7.25
2018-10-02T02:41:42.198Z,7.24
2018-10-02T02:44:46.329Z,7.26
2018-10-02T02:47:55.554Z,7.22
2018-10-02T02:51:04.945Z,7.21
2018-10-02T02:54:09.079Z,7.22
2018-10-02T02:57:13.334Z,7.19
2018-10-02T03:00:17.273Z,7.20
2018-10-02T03:03:21.233Z,7.23
2018-10-02T03:06:25.378Z,7.14
2018-10-02T03:09:29.334Z,7.17
2018-10-02T03:12:33.269Z,7.20
2018-10-02T03:15:37.261Z,7.21
2018-10-02T03:18:41.388Z,7.24
2018-10-02T03:21:45.379Z,7.24
2018-10-02T03:24:49.479Z,7.20
2018-10-02T03:27:53.469Z,7.20
2018-10-02T03:30:57.401Z,7.20
2018-10-02T03:34:01.361Z,7.19
2018-10-02T03:37:05.631Z,7.18
2018-10-02T03:40:09.881Z,7.12
2018-10-02T03:43:14.009Z,7.19
2018-10-02T03:46:18.336Z,7.18
2018-10-02T03:49:22.614Z,7.16
2018-10-02T03:52:26.567Z,7.14
2018-10-02T03:55:30.498Z,7.14
2018-10-02T03:58:34.485Z,7.13
2018-10-02T04:01:38.612Z,7.14
2018-10-02T04:04:42.543Z,7.11
2018-10-02T04:07:46.486Z,7.16
2018-10-02T04:10:50.429Z,7.16
2018-10-02T04:13:54.368Z,7.17
2018-10-02T04:16:58.882Z,7.06
2018-10-02T04:20:03.150Z,7.10
2018-10-02T04:23:07.087Z,7.08
2018-10-02T04:26:11.257Z,7.09
2018-10-02T04:29:15.206Z,7.06
2018-10-02T04:32:19.179Z,7.15
2018-10-02T04:35:23.115Z,7.14
2018-10-02T04:38:27.065Z,7.15
2018-10-02T04:41:31.015Z,7.16
2018-10-02T04:44:34.953Z,7.07
2018-10-02T04:47:38.903Z,7.01
2018-10-02T04:50:42.814Z,6.99
2018-10-02T04:53:46.829Z,7.09
2018-10-02T04:56:50.782Z,7.12
2018-10-02T04:59:54.717Z,7.21
2018-10-02T05:02:58.673Z,7.20
2018-10-02T05:06:02.623Z,7.23
2018-10-02T05:09:08.234Z,7.27
2018-10-02T05:12:12.186Z,7.24
2018-10-02T05:15:16.111Z,7.24
2018-10-02T05:18:20.054Z,7.27
2018-10-02T05:21:24.006Z,7.24
2018-10-02T05:24:27.995Z,7.27
2018-10-02T05:27:32.468Z,7.28
2018-10-02T05:30:36.590Z,7.28
2018-10-02T05:33:40.619Z,7.34
2018-10-02T05:36:44.687Z,7.31
2018-10-02T05:39:48.644Z,7.25
2018-10-02T05:42:52.668Z,7.17
2018-10-02T05:45:56.703Z,7.25
2018-10-02T05:49:00.647Z,7.31
2018-10-02T05:52:04.575Z,7.34
2018-10-02T05:55:08.826Z,7.38
2018-10-02T05:58:12.764Z,7.38
2018-10-02T06:01:16.882Z,7.42
2018-10-02T06:04:20.818Z,7.46
2018-10-02T06:07:24.818Z,7.43
2018-10-02T06:10:28.757Z,7.46
2018-10-02T06:13:32.866Z,7.49
2018-10-02T06:16:36.822Z,7.48
2018-10-02T06:19:40.852Z,7.46
2018-10-02T06:22:44.793Z,7.50
2018-10-02T06:25:48.962Z,7.48
2018-10-02T06:28:52.886Z,7.53
2018-10-02T06:31:56.815Z,7.49
2018-10-02T06:35:00.743Z,7.55
2018-10-02T06:38:04.817Z,7.60
2018-10-02T06:41:08.887Z,7.63
2018-10-02T06:44:12.920Z,7.60
2018-10-02T06:47:16.841Z,7.60
2018-10-02T06:50:20.832Z,7.57
2018-10-02T06:53:24.947Z,7.62
2018-10-02T06:56:28.905Z,7.57
2018-10-02T06:59:33.019Z,7.61
2018-10-02T07:02:36.958Z,7.67
2018-10-02T07:05:41.356Z,7.78
2018-10-02T07:08:45.553Z,7.76
2018-10-02T07:11:49.622Z,7.75
2018-10-02T07:14:53.584Z,7.76
2018-10-02T07:17:57.666Z,7.76
2018-10-02T07:21:01.667Z,7.88
2018-10-02T07:24:06.058Z,7.96
2018-10-02T07:27:10.166Z,7.89
2018-10-02T07:30:14.463Z,7.92
2018-10-02T07:33:18.403Z,7.91
2018-10-02T07:36:22.355Z,8.00
2018-10-02T07:39:26.312Z,8.05
2018-10-02T07:42:30.331Z,7.99
2018-10-02T07:45:34.415Z,8.05
2018-10-02T07:48:38.710Z,8.10
2018-10-02T07:51:42.929Z,8.09
2018-10-02T07:54:46.927Z,8.10
2018-10-02T07:57:51.103Z,8.18
2018-10-02T08:00:55.171Z,8.20
2018-10-02T08:03:59.337Z,8.21
2018-10-02T08:07:03.592Z,8.22
2018-10-02T08:10:07.524Z,8.26
2018-10-02T08:13:11.860Z,8.25
2018-10-02T08:16:16.235Z,8.22
2018-10-02T08:19:20.520Z,8.29
2018-10-02T08:22:24.694Z,8.30
2018-10-02T08:25:28.731Z,8.26
2018-10-02T08:28:32.722Z,8.36
2018-10-02T08:31:36.763Z,8.38
2018-10-02T08:34:40.827Z,8.30
2018-10-02T08:37:44.911Z,8.33
2018-10-02T08:40:49.045Z,8.36
2018-10-02T08:43:53.277Z,8.35
2018-10-02T08:46:57.488Z,8.38
2018-10-02T08:50:01.533Z,8.41
2018-10-02T08:53:05.689Z,8.32
2018-10-02T08:56:09.694Z,8.41
2018-10-02T08:59:13.656Z,8.34
2018-10-02T09:02:17.597Z,8.41
2018-10-02T09:05:21.779Z,8.37
2018-10-02T09:08:25.724Z,8.43
2018-10-02T09:11:29.645Z,8.42
2018-10-02T09:14:34.146Z,8.48
2018-10-02T09:17:38.267Z,8.44
2018-10-02T09:20:42.227Z,8.52
2018-10-02T09:23:46.371Z,8.48
2018-10-02T09:26:50.823Z,8.48
2018-10-02T09:29:59.959Z,8.54
2018-10-02T09:33:09.422Z,8.51
2018-10-02T09:36:19.122Z,8.55
2018-10-02T09:39:28.741Z,8.58
2018-10-02T09:42:38.144Z,8.52
2018-10-02T09:45:42.307Z,8.58
2018-10-02T09:48:46.381Z,8.54
2018-10-02T09:51:50.531Z,8.65
2018-10-02T09:54:54.605Z,8.64
2018-10-02T09:57:58.808Z,8.62
2018-10-02T10:02:09.981Z,8.71
2018-10-02T10:05:14.115Z,8.72
2018-10-02T10:08:18.262Z,8.72
2018-10-02T10:11:22.184Z,8.74
2018-10-02T10:14:26.123Z,8.78
2018-10-02T10:17:30.469Z,8.83
2018-10-02T10:20:34.880Z,8.84
2018-10-02T10:23:38.843Z,8.81
2018-10-02T10:26:42.840Z,8.87
2018-10-02T10:29:48.131Z,8.83
2018-10-02T10:32:52.264Z,8.81
2018-10-02T10:35:56.311Z,8.82
2018-10-02T10:39:00.341Z,8.82
2018-10-02T10:42:04.475Z,8.85
2018-10-02T10:45:11.334Z,8.88
2018-10-02T10:48:15.884Z,8.92
2018-10-02T10:51:19.991Z,8.91
2018-10-02T10:54:23.994Z,8.98
2018-10-02T10:57:28.061Z,9.05
2018-10-02T11:00:32.373Z,9.09
2018-10-02T11:03:36.379Z,9.12
2018-10-02T11:06:41.983Z,9.07
2018-10-02T11:09:46.078Z,9.15
2018-10-02T11:12:50.147Z,9.11
2018-10-02T11:15:54.085Z,9.07
2018-10-02T11:18:58.010Z,9.21
2018-10-02T11:22:02.329Z,9.20
2018-10-02T11:25:07.249Z,9.20
2018-10-02T11:28:13.140Z,9.21
2018-10-02T11:31:18.377Z,9.28
2018-10-02T11:34:22.995Z,9.25
2018-10-02T11:37:29.014Z,9.19
2018-10-02T11:40:33.170Z,9.23
2018-10-02T11:43:38.921Z,9.28
2018-10-02T11:46:43.936Z,9.28
2018-10-02T11:49:48.244Z,9.30
2018-10-02T11:52:53.063Z,9.31
2018-10-02T11:55:57.336Z,9.36
2018-10-02T11:59:02.115Z,9.40
2018-10-02T12:02:06.825Z,9.41
2018-10-02T12:05:10.883Z,9.39
2018-10-02T12:08:16.337Z,9.43
2018-10-02T12:11:20.585Z,9.42
2018-10-02T12:14:25.135Z,9.46
2018-10-02T12:17:29.669Z,9.44
2018-10-02T12:20:33.869Z,9.48
2018-10-02T12:23:38.725Z,9.52
2018-10-02T12:26:42.867Z,9.53
2018-10-02T12:29:47.544Z,9.57
2018-10-02T12:32:52.777Z,9.59
2018-10-02T12:35:56.802Z,9.64
2018-10-02T12:39:01.778Z,9.65
2018-10-02T12:42:05.895Z,9.71
2018-10-02T12:45:09.912Z,9.71
2018-10-02T12:48:13.894Z,9.72
2018-10-02T12:51:18.128Z,9.81
2018-10-02T12:54:22.375Z,9.85
2018-10-02T12:57:26.290Z,9.92
2018-10-02T13:00:30.267Z,9.90
2018-10-02T13:03:34.266Z,9.95
2018-10-02T13:06:38.592Z,9.96
2018-10-02T13:09:42.586Z,10.01
2018-10-02T13:12:46.512Z,10.03
2018-10-02T13:15:50.479Z,10.06
2018-10-02T13:18:54.426Z,10.09
2018-10-02T13:21:58.619Z,10.10
2018-10-02T13:25:02.915Z,10.13
2018-10-02T13:28:06.868Z,10.13
2018-10-02T13:31:11.046Z,10.18
2018-10-02T13:34:15.196Z,10.27
2018-10-02T13:37:20.849Z,10.31
2018-10-02T13:40:24.923Z,10.35
2018-10-02T13:43:28.858Z,10.36
2018-10-02T13:46:32.835Z,10.35
2018-10-02T13:49:36.892Z,10.37
2018-10-02T13:52:41.188Z,10.40
2018-10-02T13:55:45.170Z,10.40
2018-10-02T13:58:49.159Z,10.41
2018-10-02T14:01:53.348Z,10.46
2018-10-02T14:04:57.381Z,10.56
2018-10-02T14:08:03.410Z,10.62
2018-10-02T14:11:07.591Z,10.57
2018-10-02T14:14:11.857Z,10.54
2018-10-02T14:17:16.655Z,10.60
2018-10-02T14:20:20.730Z,10.60
2018-10-02T14:23:24.745Z,10.71
2018-10-02T14:26:28.817Z,10.79
2018-10-02T14:29:33.303Z,10.82
2018-10-02T14:32:37.390Z,10.94
2018-10-02T14:35:41.719Z,11.01
2018-10-02T14:38:50.890Z,11.02
2018-10-02T14:42:07.895Z,11.09
2018-10-02T14:45:11.769Z,11.12
2018-10-02T14:48:15.649Z,11.09
2018-10-02T14:51:19.545Z,11.12
2018-10-02T14:54:23.478Z,11.13
2018-10-02T14:57:27.361Z,11.25
2018-10-02T15:00:31.577Z,11.24
2018-10-02T15:03:35.458Z,11.24
2018-10-02T15:06:39.349Z,11.29
2018-10-02T15:09:43.248Z,11.37
2018-10-02T15:12:47.130Z,11.35
2018-10-02T15:15:51.225Z,11.37
2018-10-02T15:18:55.110Z,11.36
2018-10-02T15:21:59.069Z,11.40
2018-10-02T15:25:02.987Z,11.48
2018-10-02T15:28:06.898Z,11.47
2018-10-02T15:31:11.148Z,11.44
2018-10-02T15:34:15.221Z,11.49
2018-10-02T15:37:19.515Z,11.47
2018-10-02T15:40:23.534Z,11.45
2018-10-02T15:43:27.419Z,11.50
2018-10-02T15:46:31.330Z,11.42
2018-10-02T15:49:35.332Z,11.42
2018-10-02T15:52:39.478Z,11.39
2018-10-02T15:55:44.112Z,11.31
2018-10-02T15:58:48.561Z,11.29
2018-10-02T16:01:52.957Z,11.34
2018-10-02T16:04:56.842Z,11.27
2018-10-02T16:08:00.749Z,11.23
2018-10-02T16:11:04.684Z,11.19
2018-10-02T16:14:08.781Z,11.14
2018-10-02T16:17:12.675Z,11.19
2018-10-02T16:20:16.569Z,11.12
2018-10-02T16:23:20.465Z,11.10
2018-10-02T16:26:24.352Z,11.10
2018-10-02T16:29:28.809Z,11.05
2018-10-02T16:32:32.713Z,10.99
2018-10-02T16:35:36.694Z,10.98
2018-10-02T16:38:40.591Z,11.00
2018-10-02T16:41:44.474Z,10.91
2018-10-02T16:44:48.415Z,10.94
2018-10-02T16:47:52.549Z,10.86
2018-10-02T16:50:56.418Z,10.86
2018-10-02T16:54:00.309Z,10.80
2018-10-02T16:57:04.768Z,10.76
2018-10-02T17:00:09.289Z,10.75
2018-10-02T17:03:13.421Z,10.65
2018-10-02T17:06:17.312Z,10.69
2018-10-02T17:09:21.518Z,10.65
2018-10-02T17:12:25.461Z,10.59
2018-10-02T17:15:30.065Z,10.55
2018-10-02T17:18:33.945Z,10.51
2018-10-02T17:21:37.934Z,10.54
2018-10-02T17:24:41.953Z,10.50
2018-10-02T17:27:45.835Z,10.52
2018-10-02T17:30:49.708Z,10.48
2018-10-02T17:33:53.926Z,10.46
2018-10-02T17:36:57.811Z,10.39
2018-10-02T17:40:01.919Z,10.42
2018-10-02T17:43:05.970Z,10.42
2018-10-02T17:46:10.204Z,10.42
2018-10-02T17:49:14.085Z,10.37
2018-10-02T17:52:18.482Z,10.34
2018-10-02T17:55:22.397Z,10.39
2018-10-02T17:58:26.282Z,10.36
2018-10-02T18:01:30.210Z,10.31
2018-10-02T18:04:34.229Z,10.36
2018-10-02T18:07:38.178Z,10.28
2018-10-02T18:10:42.181Z,10.24
2018-10-02T18:13:46.065Z,10.21
2018-10-02T18:16:49.946Z,10.13
2018-10-02T18:19:54.010Z,10.17
2018-10-02T18:22:58.281Z,10.11
2018-10-02T18:26:02.156Z,10.06
2018-10-02T18:29:06.050Z,10.10
2018-10-02T18:32:10.293Z,10.15
2018-10-02T18:35:14.186Z,10.18
2018-10-02T18:38:18.406Z,10.13
2018-10-02T18:41:22.397Z,10.17
2018-10-02T18:44:26.302Z,10.14
2018-10-02T18:47:30.383Z,10.07
2018-10-02T18:50:34.279Z,10.06
2018-10-02T18:53:38.422Z,9.97
2018-10-02T18:56:42.388Z,9.90
2018-10-02T18:59:46.458Z,9.98
2018-10-02T19:02:50.354Z,9.93
2018-10-02T19:05:54.311Z,9.88
2018-10-02T19:09:03.804Z,9.94
2018-10-02T19:12:11.854Z,10.05
2018-10-02T19:15:15.873Z,10.15
2018-10-02T19:18:20.006Z,10.04
2018-10-02T19:21:24.134Z,10.07
2018-10-02T19:24:27.992Z,10.13
2018-10-02T19:27:31.914Z,10.02
2018-10-02T19:30:41.090Z,9.98
2018-10-02T19:33:45.082Z,9.94
2018-10-02T19:36:49.165Z,9.95
2018-10-02T19:39:53.384Z,10.00
2018-10-02T19:42:57.248Z,9.98
2018-10-02T19:46:06.563Z,10.00
2018-10-02T19:49:10.450Z,9.95
2018-10-02T19:52:15.548Z,9.92
2018-10-02T19:55:19.648Z,9.85
2018-10-02T19:58:23.568Z,9.93
2018-10-02T20:01:27.666Z,9.96
2018-10-02T20:04:31.555Z,9.98
2018-10-02T20:07:35.438Z,10.04
2018-10-02T20:10:39.340Z,9.92
2018-10-02T20:13:43.914Z,9.92
2018-10-02T20:16:47.991Z,10.00
2018-10-02T20:19:51.868Z,9.96
2018-10-02T20:22:56.098Z,9.98
2018-10-02T20:26:00.470Z,10.01
2018-10-02T20:29:04.606Z,10.00
2018-10-02T20:32:08.510Z,10.00
2018-10-02T20:35:12.606Z,9.99
2018-10-02T20:38:16.511Z,10.01
2018-10-02T20:41:20.423Z,10.02
2018-10-02T20:44:24.325Z,10.03
2018-10-02T20:47:28.217Z,10.03
2018-10-02T20:50:32.129Z,10.06
2018-10-02T20:53:36.105Z,10.12
2018-10-02T20:56:40.063Z,10.09
2018-10-02T20:59:44.108Z,10.14
2018-10-02T21:02:47.981Z,10.08
2018-10-02T21:05:51.876Z,10.08
2018-10-02T21:08:55.815Z,10.09
2018-10-02T21:11:59.697Z,10.07
2018-10-02T21:15:03.934Z,10.03
2018-10-02T21:18:08.053Z,10.00
2018-10-02T21:21:12.127Z,9.94
2018-10-02T21:24:16.005Z,9.93
2018-10-02T21:27:19.882Z,9.90
2018-10-02T21:30:23.853Z,9.96
2018-10-02T21:33:27.820Z,9.93
2018-10-02T21:36:31.717Z,9.85
2018-10-02T21:39:35.828Z,9.93
2018-10-02T21:42:39.858Z,9.84
2018-10-02T21:45:43.762Z,9.91
2018-10-02T21:48:47.753Z,9.89
2018-10-02T21:51:51.970Z,9.87
2018-10-02T21:54:55.857Z,9.83
2018-10-02T21:57:59.749Z,9.83
2018-10-02T22:01:03.709Z,9.86
2018-10-02T22:04:07.734Z,9.82
2018-10-02T22:07:11.816Z,9.75
2018-10-02T22:10:15.898Z,9.76
2018-10-02T22:13:20.174Z,9.73
2018-10-02T22:16:24.057Z,9.68
2018-10-02T22:19:28.143Z,9.71
2018-10-02T22:22:32.316Z,9.68
2018-10-02T22:25:36.278Z,9.68
2018-10-02T22:28:40.188Z,9.63
2018-10-02T22:31:44.154Z,9.66
2018-10-02T22:34:48.417Z,9.70
2018-10-02T22:37:52.551Z,9.73
2018-10-02T22:40:56.880Z,9.70
2018-10-02T22:44:00.929Z,9.70
2018-10-02T22:47:05.326Z,9.74
2018-10-02T22:50:09.442Z,9.69
2018-10-02T22:53:13.556Z,9.61
2018-10-02T22:56:17.542Z,9.58
2018-10-02T22:59:21.603Z,9.53
2018-10-02T23:02:25.654Z,9.58
2018-10-02T23:05:29.615Z,9.54
2018-10-02T23:08:33.780Z,9.59
2018-10-02T23:11:38.127Z,9.57
2018-10-02T23:14:42.295Z,9.63
2018-10-02T23:17:46.240Z,9.59
2018-10-02T23:20:50.313Z,9.51
2018-10-02T23:23:54.281Z,9.52
2018-10-02T23:26:58.402Z,9.49
2018-10-02T23:30:02.633Z,9.53
2018-10-02T23:33:06.606Z,9.51
2018-10-02T23:36:17.327Z,9.50
2018-10-02T23:39:22.804Z,9.54
2018-10-02T23:42:28.433Z,9.51
2018-10-02T23:45:37.506Z,9.49
2018-10-02T23:48:45.943Z,9.65
2018-10-02T23:51:59.245Z,9.58
2018-10-02T23:55:03.243Z,9.59
2018-10-02T23:58:07.985Z,9.44
